createdAt,value
2023-04-26T00:00:39.008Z,5.30
2023-04-26T00:01:38.992Z,6.00
2023-04-26T00:02:39.110Z,8.20
2023-04-26T00:03:39.098Z,6.50
2023-04-26T00:04:39.079Z,8.30
2023-04-26T00:05:39.058Z,6.00
2023-04-26T00:06:38.945Z,6.70
2023-04-26T00:07:38.944Z,6.10
2023-04-26T00:08:38.917Z,7.00
2023-04-26T00:09:38.912Z,6.00
2023-04-26T00:10:38.889Z,6.80
2023-04-26T00:11:38.903Z,7.90
2023-04-26T00:12:38.882Z,6.70
2023-04-26T00:13:38.874Z,6.60
2023-04-26T00:14:38.875Z,9.90
2023-04-26T00:15:38.841Z,6.80
2023-04-26T00:16:42.399Z,6.70
2023-04-26T00:17:38.844Z,5.90
2023-04-26T00:18:38.823Z,7.70
2023-04-26T00:19:38.802Z,7.10
2023-04-26T00:20:38.797Z,7.20
2023-04-26T00:21:43.658Z,7.50
2023-04-26T00:22:38.786Z,6.20
2023-04-26T00:23:38.755Z,7.80
2023-04-26T00:24:38.753Z,5.90
2023-04-26T00:25:38.751Z,6.30
2023-04-26T00:27:01.251Z,7.80
2023-04-26T00:27:38.746Z,5.90
2023-04-26T00:28:38.704Z,6.80
2023-04-26T00:29:38.697Z,4.80
2023-04-26T00:30:38.684Z,6.80
2023-04-26T00:31:44.822Z,5.70
2023-04-26T00:32:38.728Z,6.00
2023-04-26T00:33:38.664Z,5.70
2023-04-26T00:34:38.662Z,5.90
2023-04-26T00:35:38.642Z,7.90
2023-04-26T00:36:38.633Z,7.80
2023-04-26T00:37:38.664Z,7.40
2023-04-26T00:38:38.599Z,5.80
2023-04-26T00:39:38.594Z,6.80
2023-04-26T00:40:38.614Z,6.50
2023-04-26T00:41:38.590Z,7.00
2023-04-26T00:42:38.564Z,4.90
2023-04-26T00:43:38.550Z,7.20
2023-04-26T00:44:38.565Z,6.40
2023-04-26T00:45:38.608Z,8.10
2023-04-26T00:46:38.574Z,6.60
2023-04-26T00:47:38.573Z,7.10
2023-04-26T00:48:38.528Z,8.00
2023-04-26T00:49:38.493Z,6.40
2023-04-26T00:50:38.476Z,8.40
2023-04-26T00:51:38.474Z,6.30
2023-04-26T00:52:38.481Z,5.40
2023-04-26T00:53:38.466Z,7.70
2023-04-26T00:54:38.471Z,6.20
2023-04-26T00:55:38.484Z,6.50
2023-04-26T00:56:43.788Z,8.00
2023-04-26T00:57:38.414Z,5.80
2023-04-26T00:58:38.397Z,6.80
2023-04-26T00:59:38.394Z,5.80
2023-04-26T01:00:38.375Z,5.70
2023-04-26T01:01:38.455Z,5.90
2023-04-26T01:02:38.518Z,5.90
2023-04-26T01:03:38.572Z,4.90
2023-04-26T01:04:38.328Z,6.80
2023-04-26T01:05:38.317Z,6.10
2023-04-26T01:06:38.317Z,8.10
2023-04-26T01:07:38.308Z,5.40
2023-04-26T01:08:38.293Z,6.20
2023-04-26T01:09:38.284Z,6.50
2023-04-26T01:10:38.266Z,5.50
2023-04-26T01:11:39.954Z,8.50
2023-04-26T01:12:38.248Z,6.60
2023-04-26T01:13:38.229Z,5.40
2023-04-26T01:14:38.227Z,5.40
2023-04-26T01:15:38.223Z,7.70
2023-04-26T01:16:38.284Z,6.00
2023-04-26T01:17:38.254Z,6.00
2023-04-26T01:18:38.182Z,8.40
2023-04-26T01:19:38.171Z,8.50
2023-04-26T01:20:38.173Z,10.30
2023-04-26T01:21:38.159Z,5.70
2023-04-26T01:22:38.142Z,5.80
2023-04-26T01:23:38.127Z,7.30
2023-04-26T01:24:38.119Z,7.70
2023-04-26T01:25:38.106Z,5.70
2023-04-26T01:26:48.936Z,6.50
2023-04-26T01:27:38.097Z,6.70
2023-04-26T01:28:38.078Z,8.70
2023-04-26T01:29:38.067Z,6.30
2023-04-26T01:30:38.058Z,7.50
2023-04-26T01:31:38.115Z,4.50
2023-04-26T01:32:38.076Z,6.90
2023-04-26T01:33:38.028Z,7.20
2023-04-26T01:34:38.014Z,8.20
2023-04-26T01:35:38.000Z,7.40
2023-04-26T01:36:40.642Z,6.50
2023-04-26T01:37:37.985Z,7.00
2023-04-26T01:38:37.993Z,10.00
2023-04-26T01:39:37.962Z,9.30
2023-04-26T01:40:37.959Z,5.70
2023-04-26T01:41:48.783Z,7.20
2023-04-26T01:42:37.929Z,6.50
2023-04-26T01:43:37.912Z,9.70
2023-04-26T01:44:37.906Z,5.80
2023-04-26T01:45:37.895Z,5.30
2023-04-26T01:46:37.949Z,7.70
2023-04-26T01:47:37.980Z,5.30
2023-04-26T01:48:37.868Z,8.40
2023-04-26T01:49:37.853Z,6.10
2023-04-26T01:50:37.842Z,5.20
2023-04-26T01:51:43.439Z,5.90
2023-04-26T01:52:37.827Z,6.00
2023-04-26T01:53:37.804Z,6.50
2023-04-26T01:54:37.805Z,5.30
2023-04-26T01:55:37.800Z,5.90
2023-04-26T01:56:37.841Z,6.40
2023-04-26T01:57:37.767Z,9.40
2023-04-26T01:58:37.756Z,5.40
2023-04-26T01:59:37.762Z,7.60
2023-04-26T02:00:37.742Z,9.60
2023-04-26T02:01:39.456Z,7.30
2023-04-26T02:02:37.938Z,5.60
2023-04-26T02:03:37.730Z,5.70
2023-04-26T02:04:37.806Z,6.10
2023-04-26T02:05:37.687Z,7.40
2023-04-26T02:06:37.679Z,5.30
2023-04-26T02:07:37.680Z,5.40
2023-04-26T02:08:37.663Z,7.10
2023-04-26T02:09:37.649Z,6.60
2023-04-26T02:10:37.629Z,7.60
2023-04-26T02:11:51.794Z,6.20
2023-04-26T02:12:37.664Z,6.90
2023-04-26T02:13:37.625Z,7.10
2023-04-26T02:14:37.591Z,5.80
2023-04-26T02:15:37.631Z,6.90
2023-04-26T02:16:51.802Z,6.90
2023-04-26T02:17:37.615Z,6.00
2023-04-26T02:18:37.560Z,6.90
2023-04-26T02:19:37.559Z,6.20
2023-04-26T02:20:37.534Z,6.00
2023-04-26T02:21:41.065Z,6.00
2023-04-26T02:22:37.591Z,5.50
2023-04-26T02:23:37.499Z,8.30
2023-04-26T02:24:37.488Z,11.80
2023-04-26T02:25:37.487Z,5.60
2023-04-26T02:26:37.481Z,6.80
2023-04-26T02:27:37.470Z,6.20
2023-04-26T02:28:37.458Z,5.60
2023-04-26T02:29:44.475Z,7.90
2023-04-26T02:30:37.423Z,5.50
2023-04-26T02:31:37.493Z,5.80
2023-04-26T02:32:37.492Z,6.30
2023-04-26T02:33:37.396Z,8.10
2023-04-26T02:34:37.407Z,5.70
2023-04-26T02:35:37.375Z,7.20
2023-04-26T02:36:44.044Z,5.70
2023-04-26T02:37:37.363Z,5.20
2023-04-26T02:38:37.342Z,6.10
2023-04-26T02:39:37.336Z,10.30
2023-04-26T02:40:37.322Z,6.00
2023-04-26T02:41:41.346Z,5.60
2023-04-26T02:42:37.295Z,5.80
2023-04-26T02:43:37.324Z,7.00
2023-04-26T02:44:37.271Z,5.60
2023-04-26T02:45:37.266Z,5.60
2023-04-26T02:46:37.749Z,7.20
2023-04-26T02:47:37.279Z,5.40
2023-04-26T02:48:37.248Z,10.30
2023-04-26T02:49:37.226Z,6.30
2023-04-26T02:50:37.212Z,6.10
2023-04-26T02:51:37.217Z,5.80
2023-04-26T02:52:37.203Z,5.80
2023-04-26T02:53:37.191Z,7.40
2023-04-26T02:54:37.213Z,5.90
2023-04-26T02:55:37.177Z,6.50
2023-04-26T02:56:37.163Z,4.90
2023-04-26T02:57:37.147Z,6.80
2023-04-26T02:58:37.143Z,6.70
2023-04-26T02:59:37.117Z,5.80
2023-04-26T03:00:37.135Z,8.80
2023-04-26T03:01:37.177Z,5.80
2023-04-26T03:02:37.165Z,8.90
2023-04-26T03:03:37.374Z,5.80
2023-04-26T03:04:37.076Z,6.60
2023-04-26T03:05:37.054Z,8.10
2023-04-26T03:06:37.055Z,6.10
2023-04-26T03:07:37.043Z,7.60
2023-04-26T03:08:37.029Z,7.80
2023-04-26T03:09:37.010Z,6.60
2023-04-26T03:10:37.004Z,7.00
2023-04-26T03:11:39.217Z,6.80
2023-04-26T03:12:36.999Z,6.70
2023-04-26T03:13:36.967Z,5.90
2023-04-26T03:14:36.958Z,6.10
2023-04-26T03:15:36.946Z,6.60
2023-04-26T03:16:40.650Z,6.60
2023-04-26T03:17:36.942Z,6.80
2023-04-26T03:18:36.931Z,8.20
2023-04-26T03:19:36.907Z,5.60
2023-04-26T03:20:36.902Z,7.90
2023-04-26T03:21:41.920Z,6.90
2023-04-26T03:22:36.879Z,5.20
2023-04-26T03:23:36.864Z,6.30
2023-04-26T03:24:36.873Z,7.50
2023-04-26T03:25:36.840Z,6.70
2023-04-26T03:26:45.194Z,8.30
2023-04-26T03:27:36.819Z,6.30
2023-04-26T03:28:36.819Z,6.00
2023-04-26T03:29:36.813Z,5.80
2023-04-26T03:30:36.803Z,8.30
2023-04-26T03:31:54.002Z,5.90
2023-04-26T03:32:36.805Z,6.70
2023-04-26T03:33:36.772Z,7.70
2023-04-26T03:34:36.766Z,7.70
2023-04-26T03:35:36.754Z,4.60
2023-04-26T03:36:42.194Z,6.80
2023-04-26T03:37:36.726Z,7.30
2023-04-26T03:38:36.725Z,6.80
2023-04-26T03:39:36.706Z,7.70
2023-04-26T03:40:36.695Z,6.70
2023-04-26T03:41:36.634Z,7.50
2023-04-26T03:42:36.631Z,6.20
2023-04-26T03:43:36.607Z,6.20
2023-04-26T03:44:36.599Z,6.50
2023-04-26T03:45:36.592Z,7.20
2023-04-26T03:46:38.580Z,7.40
2023-04-26T03:47:36.627Z,6.70
2023-04-26T03:48:36.563Z,6.60
2023-04-26T03:49:36.550Z,8.90
2023-04-26T03:50:36.541Z,7.40
2023-04-26T03:51:36.534Z,8.70
2023-04-26T03:52:36.510Z,5.50
2023-04-26T03:53:36.512Z,6.20
2023-04-26T03:54:36.490Z,8.50
2023-04-26T03:55:36.495Z,8.50
2023-04-26T03:56:57.479Z,6.70
2023-04-26T03:57:36.465Z,4.70
2023-04-26T03:58:36.472Z,5.20
2023-04-26T03:59:36.442Z,6.90
2023-04-26T04:00:36.428Z,9.60
2023-04-26T04:01:36.435Z,7.40
2023-04-26T04:02:36.557Z,6.40
2023-04-26T04:03:39.204Z,7.00
2023-04-26T04:04:36.548Z,5.80
2023-04-26T04:05:36.448Z,7.60
2023-04-26T04:06:45.365Z,8.50
2023-04-26T04:07:36.353Z,6.20
2023-04-26T04:08:36.361Z,4.90
2023-04-26T04:09:36.336Z,5.70
2023-04-26T04:10:36.321Z,6.40
2023-04-26T04:11:36.333Z,7.60
2023-04-26T04:12:36.300Z,5.50
2023-04-26T04:13:36.292Z,5.20
2023-04-26T04:14:36.300Z,5.80
2023-04-26T04:15:36.303Z,5.40
2023-04-26T04:16:36.265Z,6.40
2023-04-26T04:17:38.389Z,7.00
2023-04-26T04:18:36.237Z,6.50
2023-04-26T04:19:36.235Z,7.00
2023-04-26T04:20:36.225Z,7.10
2023-04-26T04:21:46.450Z,5.10
2023-04-26T04:22:36.202Z,8.10
2023-04-26T04:23:36.187Z,6.30
2023-04-26T04:24:36.172Z,7.80
2023-04-26T04:25:36.162Z,7.50
2023-04-26T04:26:36.611Z,7.80
2023-04-26T04:27:36.178Z,6.00
2023-04-26T04:28:36.131Z,6.40
2023-04-26T04:29:36.138Z,6.40
2023-04-26T04:30:36.116Z,6.80
2023-04-26T04:31:36.671Z,10.30
2023-04-26T04:32:36.145Z,8.00
2023-04-26T04:33:36.082Z,8.60
2023-04-26T04:34:36.090Z,6.70
2023-04-26T04:35:36.067Z,6.20
2023-04-26T04:36:36.055Z,6.30
2023-04-26T04:37:36.047Z,9.60
2023-04-26T04:38:36.087Z,7.00
2023-04-26T04:39:36.035Z,10.90
2023-04-26T04:40:36.013Z,6.90
2023-04-26T04:41:36.001Z,9.00
2023-04-26T04:42:35.995Z,7.50
2023-04-26T04:43:35.973Z,6.70
2023-04-26T04:44:35.969Z,7.50
2023-04-26T04:45:35.957Z,8.20
2023-04-26T04:46:35.989Z,7.90
2023-04-26T04:47:35.951Z,7.80
2023-04-26T04:48:35.926Z,6.90
2023-04-26T04:49:35.928Z,6.80
2023-04-26T04:50:35.921Z,6.80
2023-04-26T04:51:35.896Z,7.30
2023-04-26T04:52:35.886Z,6.00
2023-04-26T04:53:35.888Z,8.40
2023-04-26T04:54:35.867Z,7.80
2023-04-26T04:55:35.863Z,7.70
2023-04-26T04:56:35.860Z,6.50
2023-04-26T04:57:35.828Z,7.50
2023-04-26T04:58:35.827Z,9.70
2023-04-26T04:59:35.808Z,7.30
2023-04-26T05:00:35.809Z,5.70
2023-04-26T05:01:50.724Z,7.50
2023-04-26T05:02:35.905Z,10.10
2023-04-26T05:03:35.891Z,7.50
2023-04-26T05:04:35.930Z,9.50
2023-04-26T05:05:35.743Z,7.60
2023-04-26T05:06:35.906Z,7.10
2023-04-26T05:07:35.740Z,12.50
2023-04-26T05:08:35.718Z,7.70
2023-04-26T05:09:35.708Z,7.90
2023-04-26T05:10:35.698Z,8.40
2023-04-26T05:11:35.693Z,8.20
2023-04-26T05:12:35.677Z,8.60
2023-04-26T05:13:35.699Z,7.40
2023-04-26T05:14:35.663Z,8.60
2023-04-26T05:15:35.648Z,8.00
2023-04-26T05:16:39.870Z,7.50
2023-04-26T05:17:35.646Z,8.10
2023-04-26T05:18:35.615Z,6.60
2023-04-26T05:19:35.604Z,10.30
2023-04-26T05:20:35.596Z,9.70
2023-04-26T05:21:50.169Z,8.60
2023-04-26T05:22:35.583Z,7.70
2023-04-26T05:23:35.561Z,9.10
2023-04-26T05:24:35.557Z,6.30
2023-04-26T05:25:35.547Z,7.10
2023-04-26T05:26:35.903Z,9.70
2023-04-26T05:27:35.557Z,6.30
2023-04-26T05:28:35.507Z,7.60
2023-04-26T05:29:35.506Z,8.10
2023-04-26T05:30:35.493Z,10.70
2023-04-26T05:31:35.516Z,9.10
2023-04-26T05:32:35.564Z,7.40
2023-04-26T05:33:35.459Z,9.00
2023-04-26T05:34:35.470Z,8.10
2023-04-26T05:35:35.444Z,7.50
2023-04-26T05:36:35.451Z,6.90
2023-04-26T05:37:35.432Z,8.60
2023-04-26T05:38:35.423Z,8.40
2023-04-26T05:39:35.423Z,8.30
2023-04-26T05:40:35.383Z,9.50
2023-04-26T05:41:35.375Z,7.90
2023-04-26T05:42:35.376Z,8.40
2023-04-26T05:43:35.400Z,8.40
2023-04-26T05:44:35.339Z,7.60
2023-04-26T05:45:35.366Z,8.50
2023-04-26T05:46:58.575Z,6.40
2023-04-26T05:47:35.367Z,6.40
2023-04-26T05:48:35.325Z,7.10
2023-04-26T05:49:35.287Z,5.70
2023-04-26T05:50:35.282Z,6.40
2023-04-26T05:51:41.181Z,8.80
2023-04-26T05:52:35.268Z,6.50
2023-04-26T05:53:35.283Z,8.40
2023-04-26T05:54:35.231Z,8.20
2023-04-26T05:55:35.264Z,7.70
2023-04-26T05:56:37.204Z,6.00
2023-04-26T05:57:35.252Z,8.30
2023-04-26T05:58:35.224Z,7.90
2023-04-26T05:59:35.185Z,7.20
2023-04-26T06:00:35.203Z,9.60
2023-04-26T06:01:41.669Z,8.50
2023-04-26T06:02:35.284Z,8.20
2023-04-26T06:03:35.393Z,7.00
2023-04-26T06:04:35.313Z,10.60
2023-04-26T06:05:35.249Z,7.10
2023-04-26T06:06:35.147Z,7.90
2023-04-26T06:07:35.096Z,7.60
2023-04-26T06:08:35.127Z,9.60
2023-04-26T06:09:35.098Z,7.40
2023-04-26T06:10:35.069Z,7.90
2023-04-26T06:11:41.277Z,10.00
2023-04-26T06:12:35.079Z,8.80
2023-04-26T06:13:35.053Z,7.40
2023-04-26T06:14:35.022Z,11.10
2023-04-26T06:15:35.117Z,8.00
2023-04-26T06:16:56.654Z,8.60
2023-04-26T06:17:35.121Z,6.70
2023-04-26T06:18:35.004Z,6.70
2023-04-26T06:19:35.103Z,7.70
2023-04-26T06:20:35.162Z,8.00
2023-04-26T06:21:36.880Z,8.40
2023-04-26T06:22:34.959Z,8.10
2023-04-26T06:23:35.042Z,6.60
2023-04-26T06:24:34.938Z,8.30
2023-04-26T06:25:35.212Z,8.90
2023-04-26T06:26:36.817Z,9.80
2023-04-26T06:27:34.907Z,7.90
2023-04-26T06:28:34.875Z,9.50
2023-04-26T06:29:34.862Z,6.00
2023-04-26T06:30:34.868Z,8.90
2023-04-26T06:31:38.385Z,8.60
2023-04-26T06:32:35.553Z,8.60
2023-04-26T06:33:35.062Z,11.00
2023-04-26T06:34:34.813Z,7.20
2023-04-26T06:35:34.824Z,7.80
2023-04-26T06:36:56.826Z,7.00
2023-04-26T06:37:34.804Z,7.30
2023-04-26T06:38:34.802Z,7.60
2023-04-26T06:39:34.758Z,7.70
2023-04-26T06:40:34.749Z,6.70
2023-04-26T06:41:34.767Z,8.10
2023-04-26T06:42:34.776Z,6.90
2023-04-26T06:43:34.725Z,9.90
2023-04-26T06:44:34.766Z,7.10
2023-04-26T06:45:34.718Z,8.20
2023-04-26T06:46:35.003Z,6.60
2023-04-26T06:47:34.725Z,10.00
2023-04-26T06:48:34.710Z,10.70
2023-04-26T06:49:34.844Z,10.10
2023-04-26T06:50:34.635Z,9.70
2023-04-26T06:51:39.835Z,7.00
2023-04-26T06:52:34.715Z,8.00
2023-04-26T06:53:34.660Z,11.10
2023-04-26T06:54:37.818Z,10.50
2023-04-26T06:55:34.612Z,8.50
2023-04-26T06:56:45.318Z,9.90
2023-04-26T06:57:34.581Z,8.60
2023-04-26T06:58:34.610Z,7.60
2023-04-26T06:59:34.547Z,9.00
2023-04-26T07:00:34.551Z,8.10
2023-04-26T07:01:34.631Z,10.90
2023-04-26T07:02:34.671Z,8.70
2023-04-26T07:03:34.733Z,8.90
2023-04-26T07:04:34.807Z,10.40
2023-04-26T07:05:34.483Z,8.40
2023-04-26T07:06:34.891Z,8.10
2023-04-26T07:07:34.459Z,10.20
2023-04-26T07:08:34.460Z,9.00
2023-04-26T07:09:34.435Z,7.90
2023-04-26T07:10:34.509Z,11.00
2023-04-26T07:11:34.429Z,9.10
2023-04-26T07:12:34.407Z,7.90
2023-04-26T07:13:34.422Z,8.20
2023-04-26T07:14:34.754Z,8.50
2023-04-26T07:15:34.418Z,10.70
2023-04-26T07:16:34.440Z,11.30
2023-04-26T07:17:34.404Z,11.10
2023-04-26T07:18:34.363Z,9.50
2023-04-26T07:19:34.339Z,11.00
2023-04-26T07:20:34.338Z,10.00
2023-04-26T07:21:34.314Z,9.90
2023-04-26T07:22:34.333Z,10.00
2023-04-26T07:23:34.300Z,8.90
2023-04-26T07:24:34.305Z,10.70
2023-04-26T07:25:34.278Z,8.60
2023-04-26T07:26:34.306Z,11.30
2023-04-26T07:27:34.405Z,11.60
2023-04-26T07:28:34.294Z,10.60
2023-04-26T07:29:34.228Z,12.80
2023-04-26T07:30:34.305Z,11.70
2023-04-26T07:31:34.211Z,11.50
2023-04-26T07:32:34.365Z,11.90
2023-04-26T07:33:34.293Z,11.90
2023-04-26T07:34:34.188Z,9.90
2023-04-26T07:35:34.169Z,10.40
2023-04-26T07:36:34.185Z,12.40
2023-04-26T07:38:00.351Z,12.50
2023-04-26T07:38:34.152Z,14.20
2023-04-26T07:39:34.118Z,13.40
2023-04-26T07:40:34.115Z,14.40
2023-04-26T07:41:34.105Z,15.20
2023-04-26T07:42:34.108Z,16.40
2023-04-26T07:43:34.164Z,17.10
2023-04-26T07:44:34.116Z,16.10
2023-04-26T07:45:34.120Z,15.40
2023-04-26T07:46:34.065Z,14.00
2023-04-26T07:47:48.689Z,17.00
2023-04-26T07:48:34.053Z,14.40
2023-04-26T07:49:34.027Z,16.00
2023-04-26T07:50:34.001Z,12.90
2023-04-26T07:51:34.019Z,13.80
2023-04-26T07:52:51.338Z,10.60
2023-04-26T07:53:33.996Z,11.80
2023-04-26T07:54:34.043Z,11.90
2023-04-26T07:55:33.956Z,15.10
2023-04-26T07:56:33.959Z,14.10
2023-04-26T07:57:36.145Z,15.20
2023-04-26T07:58:33.923Z,16.10
2023-04-26T07:59:33.975Z,12.70
2023-04-26T08:00:33.903Z,15.20
2023-04-26T08:01:33.883Z,12.70
2023-04-26T08:02:44.765Z,15.70
2023-04-26T08:03:34.191Z,12.00
2023-04-26T08:04:34.126Z,14.60
2023-04-26T08:05:34.214Z,14.80
2023-04-26T08:06:33.881Z,14.00
2023-04-26T08:07:33.939Z,13.90
2023-04-26T08:08:33.897Z,15.60
2023-04-26T08:09:33.807Z,18.20
2023-04-26T08:10:33.778Z,12.90
2023-04-26T08:11:33.812Z,16.50
2023-04-26T08:12:33.788Z,12.60
2023-04-26T08:13:33.780Z,13.20
2023-04-26T08:14:33.747Z,16.90
2023-04-26T08:15:33.764Z,12.00
2023-04-26T08:16:34.968Z,14.80
2023-04-26T08:17:41.401Z,15.40
2023-04-26T08:18:33.746Z,16.50
2023-04-26T08:19:33.691Z,15.30
2023-04-26T08:20:33.956Z,9.60
2023-04-26T08:21:33.676Z,9.80
2023-04-26T08:22:33.675Z,17.50
2023-04-26T08:23:33.639Z,11.30
2023-04-26T08:24:33.665Z,11.80
2023-04-26T08:25:33.633Z,13.70
2023-04-26T08:26:33.638Z,17.50
2023-04-26T08:27:35.538Z,11.00
2023-04-26T08:28:33.649Z,9.40
2023-04-26T08:29:33.740Z,10.20
2023-04-26T08:30:33.674Z,10.20
2023-04-26T08:31:33.717Z,12.50
2023-04-26T08:32:33.790Z,7.00
2023-04-26T08:33:33.581Z,11.30
2023-04-26T08:34:33.530Z,10.10
2023-04-26T08:35:33.630Z,9.30
2023-04-26T08:36:33.517Z,11.90
2023-04-26T08:37:33.517Z,10.00
2023-04-26T08:38:33.512Z,7.60
2023-04-26T08:39:33.485Z,7.70
2023-04-26T08:40:33.496Z,11.40
2023-04-26T08:41:33.537Z,11.60
2023-04-26T08:42:33.447Z,11.00
2023-04-26T08:43:33.424Z,7.70
2023-04-26T08:44:33.442Z,9.00
2023-04-26T08:45:33.428Z,7.10
2023-04-26T08:46:33.430Z,10.70
2023-04-26T08:47:33.952Z,8.70
2023-04-26T08:48:33.368Z,8.70
2023-04-26T08:49:33.376Z,10.00
2023-04-26T08:50:33.439Z,7.70
2023-04-26T08:51:33.345Z,8.50
2023-04-26T08:52:33.336Z,7.90
2023-04-26T08:53:33.327Z,9.40
2023-04-26T08:54:33.315Z,7.90
2023-04-26T08:55:33.339Z,7.50
2023-04-26T08:56:33.319Z,11.60
2023-04-26T08:57:39.673Z,7.60
2023-04-26T08:58:33.277Z,8.40
2023-04-26T08:59:33.262Z,7.90
2023-04-26T09:00:33.261Z,9.10
2023-04-26T09:01:33.305Z,8.70
2023-04-26T09:02:33.340Z,7.90
2023-04-26T09:03:33.411Z,7.70
2023-04-26T09:04:33.484Z,9.50
2023-04-26T09:05:33.210Z,9.30
2023-04-26T09:06:33.193Z,6.70
2023-04-26T09:07:33.226Z,9.80
2023-04-26T09:08:33.153Z,10.20
2023-04-26T09:09:33.171Z,8.70
2023-04-26T09:10:33.143Z,8.80
2023-04-26T09:11:33.130Z,10.50
2023-04-26T09:12:33.139Z,10.60
2023-04-26T09:13:33.124Z,8.90
2023-04-26T09:14:33.100Z,11.60
2023-04-26T09:15:33.092Z,7.00
2023-04-26T09:16:33.111Z,6.30
2023-04-26T09:17:33.138Z,6.20
2023-04-26T09:18:33.051Z,9.10
2023-04-26T09:19:33.042Z,11.00
2023-04-26T09:20:33.020Z,8.80
2023-04-26T09:21:33.019Z,7.80
2023-04-26T09:22:38.343Z,9.10
2023-04-26T09:23:33.025Z,6.50
2023-04-26T09:24:32.980Z,8.50
2023-04-26T09:25:33.001Z,6.30
2023-04-26T09:26:32.980Z,6.30
2023-04-26T09:27:32.961Z,6.10
2023-04-26T09:28:32.935Z,4.80
2023-04-26T09:29:32.929Z,5.00
2023-04-26T09:30:32.916Z,6.80
2023-04-26T09:31:32.951Z,5.30
2023-04-26T09:32:43.200Z,4.50
2023-04-26T09:33:32.891Z,5.10
2023-04-26T09:34:32.868Z,5.80
2023-04-26T09:35:32.882Z,8.40
2023-04-26T09:36:32.884Z,5.90
2023-04-26T09:37:34.358Z,5.00
2023-04-26T09:38:32.835Z,3.60
2023-04-26T09:39:32.845Z,5.60
2023-04-26T09:40:32.813Z,8.80
2023-04-26T09:41:32.796Z,6.50
2023-04-26T09:42:32.838Z,5.80
2023-04-26T09:43:34.788Z,4.80
2023-04-26T09:44:32.759Z,5.50
2023-04-26T09:45:32.767Z,6.50
2023-04-26T09:46:32.771Z,5.30
2023-04-26T09:49:10.647Z,3.50
2023-04-26T09:49:54.271Z,5.70
2023-04-26T09:50:54.344Z,4.70
2023-04-26T09:51:54.283Z,4.40
